Time;durP1;ratioP1;P1;durP2;ratioP2;P2;SDS_P1;SDS_P2;PMS_P1;PMS_P2;Temp;Humidity;BMP_temperature;BMP_pressure;BME280_temperature;BME280_humidity;BME280_pressure;Samples;Min_cycle;Max_cycle;Signal;HPM_P1;HPM_P2
2023/08/31 00:00:44;;;;;;;0.60;0.60;;;15.00;99.90;;;;;;4884914;28;20020;-22
2023/08/31 00:03:10;;;;;;;0.70;0.70;;;14.90;99.90;;;;;;4865127;28;20343;-22
2023/08/31 00:05:42;;;;;;;1.00;0.70;;;14.90;99.90;;;;;;4876431;29;20155;-22
2023/08/31 00:08:09;;;;;;;0.90;0.70;;;14.90;99.90;;;;;;4890651;28;20048;-22
2023/08/31 00:10:35;;;;;;;1.00;0.70;;;14.80;99.90;;;;;;4889954;28;20064;-22
2023/08/31 00:13:06;;;;;;;0.93;0.68;;;14.90;99.90;;;;;;4959114;28;20095;-22
2023/08/31 00:15:35;;;;;;;0.70;0.70;;;14.90;99.90;;;;;;4859568;28;20039;-22
2023/08/31 00:18:02;;;;;;;0.90;0.53;;;14.80;99.90;;;;;;4865057;28;20036;-22
2023/08/31 00:20:30;;;;;;;0.60;0.52;;;14.80;99.90;;;;;;4872515;28;20124;-22
2023/08/31 00:22:56;;;;;;;1.23;0.70;;;14.80;99.90;;;;;;4959732;28;20059;-22
2023/08/31 00:25:21;;;;;;;1.23;0.70;;;14.80;99.90;;;;;;4951514;28;20040;-22
2023/08/31 00:27:48;;;;;;;0.90;0.80;;;14.80;99.90;;;;;;4873641;29;20383;-22
2023/08/31 00:30:14;;;;;;;0.90;0.60;;;14.80;99.90;;;;;;4864289;28;20189;-22
2023/08/31 00:32:42;;;;;;;0.93;0.70;;;14.70;99.90;;;;;;4880002;28;20536;-22
2023/08/31 00:35:11;;;;;;;1.27;0.85;;;14.70;99.90;;;;;;4860881;28;20120;-22
2023/08/31 00:37:37;;;;;;;1.40;0.70;;;14.70;99.90;;;;;;4880198;28;20036;-22
2023/08/31 00:40:07;;;;;;;2.20;0.65;;;14.70;99.90;;;;;;4872382;29;20039;-22
2023/08/31 00:42:32;;;;;;;0.98;0.70;;;14.70;99.90;;;;;;4871551;28;20071;-22
2023/08/31 00:44:58;;;;;;;0.90;0.70;;;14.70;99.90;;;;;;4860513;28;20064;-22
2023/08/31 00:47:24;;;;;;;0.70;0.63;;;14.70;99.90;;;;;;4892797;28;20044;-22
2023/08/31 00:49:50;;;;;;;0.80;0.70;;;14.70;99.90;;;;;;4863786;28;20699;-22
2023/08/31 00:52:18;;;;;;;1.13;0.67;;;14.70;99.90;;;;;;4869710;28;20296;-22
2023/08/31 00:54:45;;;;;;;1.05;0.80;;;14.60;99.90;;;;;;4884527;29;20043;-22
2023/08/31 00:57:11;;;;;;;1.50;0.73;;;14.60;99.90;;;;;;4888007;28;20040;-22
2023/08/31 00:59:38;;;;;;;1.63;0.83;;;14.60;99.90;;;;;;4871958;28;20490;-22
2023/08/31 01:02:21;;;;;;;1.25;0.80;;;15.00;99.90;;;;;;4885669;23;20059;-81
2023/08/31 01:04:59;;;;;;;2.45;0.90;;;14.60;99.90;;;;;;4961009;28;20059;-82
2023/08/31 01:07:37;;;;;;;1.05;0.80;;;14.60;99.90;;;;;;4947694;28;20033;-82
2023/08/31 01:10:32;;;;;;;1.58;0.82;;;14.50;99.90;;;;;;4945019;28;20443;-83
2023/08/31 01:13:13;;;;;;;1.17;0.83;;;14.50;99.90;;;;;;4948793;28;20056;-82
2023/08/31 01:15:50;;;;;;;1.25;0.85;;;14.40;99.90;;;;;;4924081;28;20396;-81
2023/08/31 01:18:21;;;;;;;0.90;0.80;;;14.40;99.90;;;;;;4965569;28;20035;-80
2023/08/31 01:20:47;;;;;;;0.98;0.80;;;14.40;99.90;;;;;;4948862;28;20024;-83
2023/08/31 01:23:18;;;;;;;1.35;1.00;;;11.30;99.90;;;;;;4959886;28;20126;-81
2023/08/31 01:25:44;;;;;;;0.97;0.87;;;14.30;99.90;;;;;;4947881;28;20015;-82
2023/08/31 01:28:11;;;;;;;2.60;0.80;;;14.30;99.90;;;;;;4953279;28;20027;-82
2023/08/31 01:30:36;;;;;;;1.65;1.00;;;14.30;99.90;;;;;;4930989;28;20023;-80
2023/08/31 01:33:03;;;;;;;1.20;0.80;;;14.30;99.90;;;;;;4959976;28;20049;-82
2023/08/31 01:35:37;;;;;;;1.73;1.20;;;14.30;99.90;;;;;;4950457;28;20267;-81
2023/08/31 01:38:04;;;;;;;2.08;0.95;;;14.30;99.90;;;;;;4944297;28;20028;-80
2023/08/31 01:41:03;;;;;;;1.35;0.85;;;14.30;99.90;;;;;;4949573;28;20041;-82
2023/08/31 01:43:30;;;;;;;1.67;1.10;;;14.20;99.90;;;;;;4957226;28;20057;-81
2023/08/31 01:45:58;;;;;;;1.35;0.93;;;14.20;99.90;;;;;;4963826;28;20047;-81
2023/08/31 01:48:23;;;;;;;2.03;0.90;;;14.30;99.90;;;;;;4962980;28;20069;-82
2023/08/31 01:50:49;;;;;;;1.50;1.05;;;14.20;99.90;;;;;;4933790;28;20513;-80
2023/08/31 01:53:15;;;;;;;2.67;1.27;;;14.20;99.90;;;;;;4964090;28;20027;-81
2023/08/31 01:55:40;;;;;;;1.50;1.05;;;14.20;99.90;;;;;;4948253;28;20059;-82
2023/08/31 01:58:07;;;;;;;1.63;1.10;;;14.20;99.90;;;;;;4932636;28;20054;-81
2023/08/31 02:00:38;;;;;;;1.33;1.00;;;14.20;99.90;;;;;;4958587;28;20558;-81
2023/08/31 02:03:04;;;;;;;1.88;1.10;;;14.20;99.90;;;;;;4944277;28;20039;-80
2023/08/31 02:05:30;;;;;;;1.58;1.13;;;14.20;99.90;;;;;;4932801;28;20408;-81
2023/08/31 02:07:56;;;;;;;1.97;1.03;;;14.20;99.90;;;;;;4933311;28;20026;-80
2023/08/31 02:10:21;;;;;;;2.80;1.30;;;13.40;99.90;;;;;;4943498;28;20298;-82
2023/08/31 02:12:47;;;;;;;2.00;1.33;;;14.20;99.90;;;;;;4965885;28;20058;-80
2023/08/31 02:15:13;;;;;;;2.10;1.23;;;14.20;99.90;;;;;;4934015;28;20023;-82
2023/08/31 02:17:38;;;;;;;1.85;1.30;;;14.20;99.90;;;;;;4933626;28;20500;-80
2023/08/31 02:20:06;;;;;;;2.70;1.30;;;14.20;99.90;;;;;;4946147;28;20065;-83
2023/08/31 02:22:35;;;;;;;1.77;1.20;;;14.20;99.90;;;;;;4970970;28;20101;-82
2023/08/31 02:25:03;;;;;;;2.08;1.27;;;14.20;99.90;;;;;;4944364;28;20038;-82
2023/08/31 02:27:29;;;;;;;2.00;1.30;;;14.20;99.90;;;;;;4944149;28;20138;-83
2023/08/31 02:29:55;;;;;;;1.70;1.10;;;14.10;99.90;;;;;;4947933;28;20563;-83
2023/08/31 02:32:21;;;;;;;2.05;1.30;;;;;;;;;;4931086;28;20093;-82
2023/08/31 02:34:47;;;;;;;2.58;1.30;;;14.20;99.90;;;;;;4941953;28;20129;-82
2023/08/31 02:37:13;;;;;;;1.93;1.23;;;14.20;99.90;;;;;;4950051;28;20110;-83
2023/08/31 02:39:40;;;;;;;1.88;1.25;;;14.10;99.90;;;;;;4930448;28;20054;-84
2023/08/31 02:42:06;;;;;;;1.70;1.20;;;14.20;99.90;;;;;;4971781;28;20403;-83
2023/08/31 02:44:32;;;;;;;1.67;1.20;;;14.20;99.90;;;;;;4954747;28;20089;-83
2023/08/31 02:46:58;;;;;;;2.17;1.25;;;14.20;99.90;;;;;;4962816;28;20093;-83
2023/08/31 02:49:23;;;;;;;2.60;1.60;;;14.10;99.90;;;;;;4965892;28;20023;-83
2023/08/31 02:51:49;;;;;;;2.20;1.40;;;14.10;99.90;;;;;;4970020;28;20042;-83
2023/08/31 02:54:15;;;;;;;1.95;1.20;;;14.10;99.90;;;;;;4950506;28;20023;-83
2023/08/31 02:56:41;;;;;;;2.00;1.10;;;14.10;99.90;;;;;;4952834;28;20479;-83
2023/08/31 02:59:07;;;;;;;2.90;1.50;;;14.10;99.90;;;;;;4930979;28;20480;-83
2023/08/31 03:01:32;;;;;;;2.10;1.27;;;14.10;99.90;;;;;;4967789;28;20037;-83
2023/08/31 03:03:58;;;;;;;1.90;1.30;;;14.10;99.90;;;;;;4955210;28;20508;-82
2023/08/31 03:06:24;;;;;;;1.65;1.20;;;14.10;99.90;;;;;;4931962;28;20268;-83
2023/08/31 03:08:49;;;;;;;2.17;1.20;;;14.20;99.90;;;;;;4969653;28;20094;-83
2023/08/31 03:11:16;;;;;;;2.63;1.30;;;;;;;;;;4947087;28;20045;-83
2023/08/31 03:13:41;;;;;;;2.20;1.30;;;14.20;99.90;;;;;;4953123;28;20105;-83
2023/08/31 03:16:07;;;;;;;1.90;1.23;;;14.20;99.90;;;;;;4940139;28;20458;-84
2023/08/31 03:18:33;;;;;;;1.80;1.30;;;14.20;99.90;;;;;;4949667;28;20062;-83
2023/08/31 03:20:59;;;;;;;1.87;1.10;;;14.20;99.90;;;;;;4948834;28;20084;-83
2023/08/31 03:23:25;;;;;;;1.67;1.13;;;15.40;99.90;;;;;;4931813;28;20287;-83
2023/08/31 03:25:51;;;;;;;2.63;1.50;;;14.20;99.90;;;;;;4965164;28;20101;-83
2023/08/31 03:28:16;;;;;;;3.53;1.30;;;14.20;99.90;;;;;;4946826;28;20115;-83
2023/08/31 03:30:44;;;;;;;3.08;1.40;;;14.20;99.90;;;;;;4969153;28;20483;-83
2023/08/31 03:33:11;;;;;;;2.03;1.35;;;14.20;99.90;;;;;;4950041;28;20475;-84
2023/08/31 03:35:36;;;;;;;2.97;1.40;;;13.80;99.90;;;;;;4947192;28;20031;-83
2023/08/31 03:38:02;;;;;;;2.27;1.27;;;14.20;99.90;;;;;;4954895;28;20035;-85
2023/08/31 03:40:28;;;;;;;2.08;1.20;;;14.30;99.90;;;;;;4967209;28;20459;-82
2023/08/31 03:42:54;;;;;;;1.88;1.30;;;14.20;99.90;;;;;;4948965;28;20027;-84
2023/08/31 03:45:21;;;;;;;2.53;1.40;;;14.30;99.90;;;;;;4951677;28;20077;-83
2023/08/31 03:47:46;;;;;;;1.92;1.30;;;14.30;99.90;;;;;;4952335;28;20029;-83
2023/08/31 03:50:12;;;;;;;2.90;1.48;;;14.30;99.90;;;;;;4946815;28;20031;-82
2023/08/31 03:52:38;;;;;;;2.10;1.23;;;14.30;99.90;;;;;;4943708;28;20149;-83
2023/08/31 03:55:04;;;;;;;2.58;1.30;;;14.30;99.90;;;;;;4937142;28;20130;-83
2023/08/31 03:57:30;;;;;;;2.30;1.30;;;14.30;99.90;;;;;;4934576;28;20022;-83
2023/08/31 03:59:55;;;;;;;2.70;1.47;;;14.30;99.90;;;;;;4948307;28;20105;-83
2023/08/31 04:02:23;;;;;;;1.90;1.30;;;14.30;99.90;;;;;;4948369;28;20046;-83
2023/08/31 04:04:48;;;;;;;2.13;1.20;;;14.30;99.90;;;;;;4967571;28;21038;-83
2023/08/31 04:07:15;;;;;;;1.80;1.20;;;14.30;99.90;;;;;;4965969;28;20098;-83
2023/08/31 04:09:40;;;;;;;1.73;1.38;;;14.30;99.90;;;;;;4955860;28;20028;-83
2023/08/31 04:12:06;;;;;;;2.53;1.43;;;14.30;99.90;;;;;;4951569;28;20495;-83
2023/08/31 04:14:32;;;;;;;1.95;1.20;;;14.30;99.90;;;;;;4956321;28;20039;-83
2023/08/31 04:16:57;;;;;;;1.93;1.20;;;14.20;99.90;;;;;;4944061;28;20110;-83
2023/08/31 04:19:23;;;;;;;1.50;1.00;;;14.20;99.90;;;;;;4953351;28;20133;-83
2023/08/31 04:21:49;;;;;;;2.23;1.23;;;14.20;99.90;;;;;;4958803;28;22031;-84
2023/08/31 04:24:15;;;;;;;2.10;1.38;;;14.20;99.90;;;;;;4951359;28;20086;-82
2023/08/31 04:26:43;;;;;;;2.22;1.13;;;14.20;99.90;;;;;;4948841;28;20031;-83
2023/08/31 04:29:08;;;;;;;1.70;1.10;;;14.20;99.90;;;;;;4967021;28;20442;-83
2023/08/31 04:31:34;;;;;;;3.40;1.10;;;14.10;99.90;;;;;;4950552;28;20092;-83
2023/08/31 04:34:00;;;;;;;1.97;1.20;;;14.10;99.90;;;;;;4934836;28;20114;-82
2023/08/31 04:36:26;;;;;;;2.07;1.20;;;14.10;99.90;;;;;;4934628;28;20348;-82
2023/08/31 04:38:52;;;;;;;4.40;1.63;;;14.10;99.90;;;;;;4945488;28;20045;-83
2023/08/31 04:41:18;;;;;;;1.92;1.40;;;14.10;99.90;;;;;;4966102;28;20031;-83
2023/08/31 04:43:43;;;;;;;2.23;1.30;;;14.10;99.90;;;;;;4954191;28;20081;-83
2023/08/31 04:46:10;;;;;;;1.77;1.13;;;14.20;99.90;;;;;;4935804;28;20050;-82
2023/08/31 04:48:36;;;;;;;2.63;1.50;;;14.10;99.90;;;;;;4934086;28;20026;-83
2023/08/31 04:51:03;;;;;;;3.25;1.40;;;14.10;99.90;;;;;;4965596;28;20267;-83
2023/08/31 04:53:30;;;;;;;1.57;1.07;;;14.20;99.90;;;;;;4946788;28;21075;-83
2023/08/31 04:55:56;;;;;;;2.60;1.30;;;14.10;99.90;;;;;;4946394;28;20031;-82
2023/08/31 04:58:21;;;;;;;1.95;1.20;;;14.10;99.90;;;;;;4968691;28;20483;-82
2023/08/31 05:00:47;;;;;;;2.50;1.20;;;14.10;99.90;;;;;;4951024;28;20407;-84
2023/08/31 05:03:14;;;;;;;1.90;1.20;;;14.10;99.90;;;;;;4947231;28;20077;-83
2023/08/31 05:05:41;;;;;;;2.10;1.40;;;14.10;99.90;;;;;;4964176;28;20030;-82
2023/08/31 05:08:08;;;;;;;3.00;1.30;;;14.10;99.90;;;;;;4925775;28;20086;-82
2023/08/31 05:10:34;;;;;;;1.67;1.23;;;14.10;99.90;;;;;;4928605;28;20066;-83
2023/08/31 05:13:00;;;;;;;2.03;1.30;;;14.10;99.90;;;;;;4954905;28;20043;-82
2023/08/31 05:15:27;;;;;;;2.17;1.30;;;14.10;99.90;;;;;;4948290;28;20038;-83
2023/08/31 05:17:54;;;;;;;1.90;1.20;;;;;;;;;;4955593;28;20121;-84
2023/08/31 05:20:22;;;;;;;2.30;1.10;;;14.20;99.90;;;;;;4932018;28;20491;-83
2023/08/31 05:22:48;;;;;;;2.35;1.30;;;14.20;99.90;;;;;;4966151;28;20549;-82
2023/08/31 05:25:14;;;;;;;2.03;1.17;;;14.20;99.90;;;;;;4961003;28;20023;-83
2023/08/31 05:27:40;;;;;;;2.30;1.30;;;14.20;99.90;;;;;;4950346;28;20018;-83
2023/08/31 05:30:06;;;;;;;3.23;1.87;;;14.20;99.90;;;;;;4953715;28;20436;-82
2023/08/31 05:32:32;;;;;;;3.28;1.58;;;14.20;99.90;;;;;;4953480;28;20034;-82
2023/08/31 05:34:59;;;;;;;2.60;1.60;;;14.20;99.90;;;;;;4937341;28;20037;-83
2023/08/31 05:37:25;;;;;;;2.63;1.30;;;14.20;99.90;;;;;;4941891;28;20289;-83
2023/08/31 05:39:51;;;;;;;3.10;1.52;;;14.30;99.90;;;;;;4939180;28;20073;-83
2023/08/31 05:42:17;;;;;;;2.08;1.42;;;14.30;99.90;;;;;;4968426;28;20106;-82
2023/08/31 05:44:44;;;;;;;2.10;1.35;;;14.30;99.90;;;;;;4951363;28;20036;-81
2023/08/31 05:47:10;;;;;;;2.45;1.35;;;14.30;99.90;;;;;;4951228;28;20030;-83
2023/08/31 05:49:35;;;;;;;1.60;1.30;;;14.40;99.90;;;;;;4933830;28;20439;-82
2023/08/31 05:52:01;;;;;;;2.35;1.40;;;14.40;99.90;;;;;;4948523;28;20634;-83
2023/08/31 05:54:27;;;;;;;1.63;1.23;;;14.40;99.90;;;;;;4944686;28;20426;-84
2023/08/31 05:56:53;;;;;;;1.80;1.20;;;14.40;99.90;;;;;;4949235;28;20122;-82
2023/08/31 05:59:18;;;;;;;1.80;1.10;;;15.90;99.90;;;;;;4968101;28;20023;-82
2023/08/31 06:01:44;;;;;;;2.00;1.40;;;14.50;99.90;;;;;;4932449;28;20043;-84
2023/08/31 06:04:10;;;;;;;2.83;1.23;;;14.60;99.90;;;;;;4950473;28;20111;-83
2023/08/31 06:06:36;;;;;;;1.90;1.10;;;14.60;99.90;;;;;;4945870;28;20035;-84
2023/08/31 06:09:02;;;;;;;1.67;1.20;;;14.60;99.90;;;;;;4964582;28;20049;-82
2023/08/31 06:11:29;;;;;;;2.45;1.30;;;14.70;99.90;;;;;;4957578;28;20065;-83
2023/08/31 06:13:55;;;;;;;2.20;1.20;;;14.70;99.90;;;;;;4952573;28;20121;-81
2023/08/31 06:16:21;;;;;;;2.17;1.58;;;14.70;99.90;;;;;;4964015;28;20575;-85
2023/08/31 06:18:46;;;;;;;1.70;1.07;;;14.80;99.90;;;;;;4949621;28;20562;-87
2023/08/31 06:21:12;;;;;;;1.75;1.20;;;14.80;99.90;;;;;;4937276;28;20499;-83
2023/08/31 06:23:38;;;;;;;1.63;1.10;;;14.90;99.90;;;;;;4966596;28;20500;-83
2023/08/31 06:26:04;;;;;;;2.67;1.33;;;14.90;99.90;;;;;;4946046;28;20039;-83
2023/08/31 06:28:29;;;;;;;3.10;1.30;;;14.90;99.90;;;;;;4953194;28;20032;-83
2023/08/31 06:30:55;;;;;;;1.25;0.95;;;15.00;99.90;;;;;;4954033;28;20102;-84
2023/08/31 06:33:21;;;;;;;2.60;1.30;;;15.00;99.90;;;;;;4953303;28;20106;-83
2023/08/31 06:35:51;;;;;;;2.15;1.25;;;15.10;99.90;;;;;;4955056;28;20058;-83
2023/08/31 06:38:19;;;;;;;3.03;1.42;;;15.00;99.90;;;;;;4929571;28;20054;-83
2023/08/31 06:40:46;;;;;;;2.58;1.30;;;15.20;99.90;;;;;;4967095;28;20132;-82
2023/08/31 06:43:12;;;;;;;2.88;1.40;;;15.30;99.90;;;;;;4931866;28;20038;-83
2023/08/31 06:45:38;;;;;;;3.07;1.60;;;15.40;99.90;;;;;;4950539;28;20295;-82
2023/08/31 06:48:04;;;;;;;3.45;1.50;;;15.50;99.90;;;;;;4970110;28;20082;-84
2023/08/31 06:50:30;;;;;;;3.05;1.38;;;15.50;99.90;;;;;;4963798;28;20042;-83
2023/08/31 06:52:56;;;;;;;4.77;1.60;;;15.60;99.90;;;;;;4953331;28;20023;-83
2023/08/31 06:55:22;;;;;;;2.28;1.30;;;15.70;99.90;;;;;;4933570;28;20035;-83
2023/08/31 06:57:48;;;;;;;3.58;1.48;;;15.80;99.90;;;;;;4948323;28;20240;-82
2023/08/31 07:00:14;;;;;;;2.30;1.37;;;15.80;99.90;;;;;;4953368;28;20500;-83
2023/08/31 07:02:41;;;;;;;6.32;1.45;;;15.90;99.90;;;;;;4968004;28;20043;-81
2023/08/31 07:05:09;;;;;;;3.78;1.52;;;16.00;99.90;;;;;;4948614;28;20067;-80
2023/08/31 07:07:35;;;;;;;2.88;1.38;;;16.10;99.90;;;;;;4965499;28;20240;-80
2023/08/31 07:10:01;;;;;;;3.63;1.37;;;16.10;99.90;;;;;;4952574;28;20386;-82
2023/08/31 07:12:27;;;;;;;2.15;1.40;;;16.20;99.90;;;;;;4942839;28;20511;-84
2023/08/31 07:14:53;;;;;;;3.25;1.52;;;16.30;99.90;;;;;;4953171;28;20053;-82
2023/08/31 07:17:19;;;;;;;3.23;1.70;;;16.40;99.90;;;;;;4953614;28;20825;-81
2023/08/31 07:19:45;;;;;;;3.25;1.75;;;16.40;99.90;;;;;;4966890;28;20034;-82
2023/08/31 07:22:11;;;;;;;3.00;1.30;;;16.40;99.90;;;;;;4933777;28;20503;-81
2023/08/31 07:24:37;;;;;;;3.60;1.40;;;16.50;99.90;;;;;;4968088;28;20026;-82
2023/08/31 07:27:04;;;;;;;3.87;1.53;;;16.60;99.90;;;;;;4952347;28;20030;-83
2023/08/31 07:29:30;;;;;;;5.60;1.65;;;16.70;99.90;;;;;;4927983;28;20019;-80
2023/08/31 07:31:55;;;;;;;2.95;1.42;;;16.70;99.90;;;;;;4952725;28;20042;-82
2023/08/31 07:34:21;;;;;;;3.60;1.63;;;16.80;99.90;;;;;;4969250;28;20023;-82
2023/08/31 07:36:47;;;;;;;2.53;1.73;;;16.90;99.90;;;;;;4965205;28;20097;-81
2023/08/31 07:39:13;;;;;;;3.22;1.40;;;17.00;99.90;;;;;;4935736;28;20030;-81
2023/08/31 07:41:39;;;;;;;3.97;1.47;;;17.10;99.90;;;;;;4935427;28;20030;-83
2023/08/31 07:44:05;;;;;;;3.25;1.50;;;17.20;99.90;;;;;;4946452;28;20027;-82
2023/08/31 07:46:31;;;;;;;2.53;1.38;;;17.20;99.90;;;;;;4963468;28;20207;-81
2023/08/31 07:48:57;;;;;;;2.90;1.77;;;17.30;99.90;;;;;;4965944;28;20059;-82
2023/08/31 07:51:24;;;;;;;2.72;1.50;;;17.40;99.90;;;;;;4933779;28;20023;-82
2023/08/31 07:53:50;;;;;;;2.45;1.45;;;17.50;99.90;;;;;;4948831;28;20042;-82
2023/08/31 07:56:16;;;;;;;2.53;1.43;;;17.50;99.90;;;;;;4952688;28;20366;-81
2023/08/31 07:58:42;;;;;;;3.60;1.42;;;17.60;99.90;;;;;;4949741;28;20726;-81
2023/08/31 08:01:08;;;;;;;3.53;1.30;;;17.70;99.90;;;;;;4947935;28;20086;-82
2023/08/31 08:03:33;;;;;;;3.73;1.40;;;17.80;99.90;;;;;;4967006;28;20552;-80
2023/08/31 08:05:59;;;;;;;2.97;1.67;;;17.90;99.90;;;;;;4935095;28;21026;-82
2023/08/31 08:08:25;;;;;;;2.90;1.63;;;18.00;99.90;;;;;;4945374;28;20179;-83
2023/08/31 08:10:54;;;;;;;3.40;1.63;;;18.10;99.90;;;;;;4954460;28;20027;-86
2023/08/31 08:13:20;;;;;;;2.83;1.50;;;18.20;99.90;;;;;;4964512;28;20042;-84
2023/08/31 08:15:46;;;;;;;2.75;1.45;;;18.30;99.90;;;;;;4965079;28;20038;-84
2023/08/31 08:18:12;;;;;;;4.20;1.50;;;18.50;99.90;;;;;;4966563;28;20191;-86
2023/08/31 08:20:38;;;;;;;3.00;1.63;;;18.70;99.90;;;;;;4966021;28;20515;-84
2023/08/31 08:23:06;;;;;;;5.10;1.63;;;18.90;99.90;;;;;;4947776;28;20115;-85
2023/08/31 08:25:32;;;;;;;4.35;1.50;;;19.20;99.90;;;;;;4949605;28;20030;-85
2023/08/31 08:27:58;;;;;;;3.10;1.60;;;19.50;99.90;;;;;;4952100;28;20015;-84
2023/08/31 08:30:24;;;;;;;3.50;1.65;;;19.70;99.90;;;;;;4967560;28;20041;-82
2023/08/31 08:32:50;;;;;;;3.27;1.40;;;20.10;99.90;;;;;;4936085;28;20039;-85
2023/08/31 08:35:15;;;;;;;2.90;1.52;;;20.30;99.90;;;;;;4949342;28;20114;-85
2023/08/31 08:37:41;;;;;;;3.70;1.55;;;20.70;99.90;;;;;;4941266;28;20384;-93
2023/08/31 08:40:07;;;;;;;3.70;1.40;;;21.10;99.90;;;;;;4956959;28;20023;-85
2023/08/31 08:42:41;;;;;;;2.65;1.40;;;21.50;99.90;;;;;;4952598;28;20083;-89
2023/08/31 08:45:15;;;;;;;3.17;1.50;;;21.90;99.90;;;;;;4946086;28;20105;-84
2023/08/31 08:47:42;;;;;;;2.83;1.47;;;22.40;99.90;;;;;;4952500;28;20023;-85
2023/08/31 08:50:08;;;;;;;2.28;1.17;;;22.90;99.90;;;;;;4948120;28;20097;-84
2023/08/31 08:52:35;;;;;;;3.33;1.70;;;23.30;99.90;;;;;;4962410;28;20284;-86
2023/08/31 08:55:02;;;;;;;2.55;1.52;;;23.80;99.90;;;;;;4930796;28;20019;-85
2023/08/31 08:57:30;;;;;;;2.40;1.42;;;24.20;99.90;;;;;;4950102;28;20035;-86
2023/08/31 08:59:58;;;;;;;3.40;1.50;;;24.70;99.90;;;;;;4945889;28;20085;-86
2023/08/31 09:02:24;;;;;;;4.65;1.45;;;25.10;99.90;;;;;;4948010;28;20122;-87
2023/08/31 09:04:54;;;;;;;3.95;1.60;;;25.50;99.90;;;;;;4947709;28;20030;-85
2023/08/31 09:07:21;;;;;;;4.25;1.80;;;25.90;99.90;;;;;;4948308;28;20034;-87
2023/08/31 09:09:52;;;;;;;3.97;2.10;;;26.20;99.90;;;;;;4947244;28;20035;-86
2023/08/31 09:12:18;;;;;;;4.97;1.70;;;26.40;99.90;;;;;;4967045;28;20045;-83
2023/08/31 09:14:56;;;;;;;4.57;1.98;;;26.60;99.90;;;;;;4949318;28;20031;-86
2023/08/31 09:17:25;;;;;;;3.13;1.70;;;26.90;99.90;;;;;;4962793;28;20320;-86
2023/08/31 09:20:01;;;;;;;3.78;1.80;;;27.10;99.90;;;;;;4965538;28;20033;-87
2023/08/31 09:22:27;;;;;;;2.88;1.75;;;27.30;99.90;;;;;;4965808;28;20027;-83
2023/08/31 09:24:52;;;;;;;2.67;1.77;;;27.60;99.90;;;;;;4964959;28;20414;-83
2023/08/31 09:27:20;;;;;;;3.22;1.80;;;27.80;99.90;;;;;;4966120;28;20030;-82
2023/08/31 09:29:46;;;;;;;2.60;1.85;;;28.00;99.90;;;;;;4937939;28;20125;-83
2023/08/31 09:32:19;;;;;;;2.57;1.50;;;28.10;99.90;;;;;;4942956;28;20102;-83
2023/08/31 09:34:45;;;;;;;3.55;1.70;;;28.30;99.90;;;;;;4966169;28;20065;-82
2023/08/31 09:37:11;;;;;;;2.35;1.80;;;28.40;99.90;;;;;;4967000;28;20082;-81
2023/08/31 09:39:39;;;;;;;4.70;1.98;;;28.50;99.90;;;;;;4948129;28;20051;-79
2023/08/31 09:42:05;;;;;;;2.42;1.65;;;28.60;99.90;;;;;;4951439;28;20535;-81
2023/08/31 09:44:31;;;;;;;3.70;1.90;;;28.70;99.90;;;;;;4953948;28;20118;-77
2023/08/31 09:46:57;;;;;;;3.38;1.80;;;28.70;99.90;;;;;;4946426;28;20111;-82
2023/08/31 09:49:25;;;;;;;2.80;1.73;;;28.80;99.90;;;;;;4947933;28;20122;-81
2023/08/31 09:51:51;;;;;;;3.92;1.85;;;28.80;99.90;;;;;;4968560;28;20407;-81
2023/08/31 09:54:19;;;;;;;3.20;1.67;;;28.80;99.90;;;;;;4968619;28;20030;-82
2023/08/31 09:56:46;;;;;;;2.33;1.77;;;28.90;99.90;;;;;;4949642;28;20066;-81
2023/08/31 09:59:14;;;;;;;3.40;1.85;;;29.10;99.90;;;;;;4971397;28;20249;-80
2023/08/31 10:01:46;;;;;;;2.90;2.00;;;29.20;99.90;;;;;;4950398;28;20175;-80
2023/08/31 10:04:12;;;;;;;2.67;1.92;;;29.40;99.90;;;;;;4964906;28;20030;-83
2023/08/31 10:06:42;;;;;;;2.60;1.70;;;29.60;99.90;;;;;;4948652;28;20033;-81
2023/08/31 10:09:11;;;;;;;3.25;2.00;;;29.70;99.90;;;;;;4971457;28;20073;-84
2023/08/31 10:11:39;;;;;;;3.25;1.80;;;29.90;99.90;;;;;;4933587;28;20114;-82
2023/08/31 10:14:05;;;;;;;3.22;1.60;;;30.00;99.90;;;;;;4930773;28;20039;-81
2023/08/31 10:16:32;;;;;;;3.63;1.92;;;30.00;99.90;;;;;;4935622;28;20129;-81
2023/08/31 10:18:59;;;;;;;3.03;2.00;;;30.00;99.90;;;;;;4948231;28;20035;-82
2023/08/31 10:21:25;;;;;;;4.03;1.80;;;30.10;99.90;;;;;;4950843;28;20224;-84
2023/08/31 10:23:51;;;;;;;2.90;1.90;;;30.10;99.90;;;;;;4951150;28;20032;-83
2023/08/31 10:26:25;;;;;;;2.30;1.77;;;30.10;99.90;;;;;;4953923;28;20097;-83
2023/08/31 10:28:51;;;;;;;2.03;1.80;;;30.00;96.90;;;;;;4966580;28;20524;-82
2023/08/31 10:31:18;;;;;;;2.70;1.50;;;29.80;99.90;;;;;;4958486;28;20094;-85
2023/08/31 10:34:03;;;;;;;2.42;1.60;;;29.60;99.90;;;;;;4971891;28;20034;-88
2023/08/31 10:36:45;;;;;;;2.63;1.50;;;29.60;99.90;;;;;;4966864;28;20543;-81
2023/08/31 10:39:16;;;;;;;2.08;1.40;;;29.60;99.90;;;;;;4952109;28;20061;-81
2023/08/31 10:41:52;;;;;;;2.13;1.50;;;29.60;99.90;;;;;;4938372;28;20254;-82
2023/08/31 10:44:30;;;;;;;2.67;1.80;;;29.60;99.90;;;;;;4964096;28;20015;-82
2023/08/31 10:47:00;;;;;;;1.98;1.48;;;29.70;99.90;;;;;;4948944;28;20045;-85
2023/08/31 10:49:26;;;;;;;3.22;1.83;;;29.90;99.90;;;;;;4947741;28;20141;-82
2023/08/31 10:52:18;;;;;;;2.97;1.38;;;29.90;99.90;;;;;;4972412;28;20038;-84
2023/08/31 10:54:46;;;;;;;1.93;1.23;;;29.80;95.80;;;;;;4952425;28;20051;-83
2023/08/31 10:57:14;;;;;;;3.25;1.20;;;29.50;99.00;;;;;;4954725;28;20042;-82
2023/08/31 10:59:55;;;;;;;2.25;1.10;;;29.30;99.90;;;;;;4967825;28;20035;-87
2023/08/31 11:02:28;;;;;;;2.33;1.33;;;29.20;99.60;;;;;;4969239;28;20035;-83
2023/08/31 11:05:06;;;;;;;1.92;1.30;;;29.10;99.40;;;;;;4946451;28;20071;-84
2023/08/31 11:07:35;;;;;;;2.47;1.40;;;29.10;99.90;;;;;;4953003;28;20022;-84
2023/08/31 11:10:11;;;;;;;3.03;1.58;;;29.20;99.90;;;;;;4966581;28;20117;-82
2023/08/31 11:12:38;;;;;;;2.25;1.70;;;29.50;99.90;;;;;;4949752;28;20060;-82
2023/08/31 11:15:05;;;;;;;2.35;1.42;;;29.70;99.90;;;;;;4951336;28;20033;-84
2023/08/31 11:17:32;;;;;;;2.95;1.60;;;29.90;99.90;;;;;;4946741;28;20042;-83
2023/08/31 11:19:59;;;;;;;3.03;1.57;;;30.10;99.90;;;;;;4967547;28;20395;-84
2023/08/31 11:22:25;;;;;;;3.03;1.45;;;30.10;99.90;;;;;;4947975;28;20019;-83
2023/08/31 11:24:51;;;;;;;2.15;1.50;;;30.00;99.90;;;;;;4968433;28;20271;-82
2023/08/31 11:27:21;;;;;;;2.35;1.50;;;29.90;99.90;;;;;;4952413;28;20035;-83
2023/08/31 11:29:47;;;;;;;2.22;1.60;;;30.00;99.90;;;;;;4969282;28;20049;-86
2023/08/31 11:32:13;;;;;;;1.50;1.30;;;30.00;99.90;;;;;;4952381;28;20484;-83
2023/08/31 11:34:43;;;;;;;3.00;1.70;;;30.10;99.90;;;;;;4968970;28;20030;-85
2023/08/31 11:37:17;;;;;;;2.75;1.67;;;30.20;99.90;;;;;;4952638;28;20038;-83
2023/08/31 11:39:53;;;;;;;2.25;1.95;;;30.30;99.90;;;;;;4949450;28;20114;-87
2023/08/31 11:42:21;;;;;;;2.80;1.70;;;30.40;99.90;;;;;;4958585;28;20057;-83
2023/08/31 11:44:49;;;;;;;2.57;1.60;;;30.50;99.90;;;;;;4970851;28;20400;-86
2023/08/31 11:47:16;;;;;;;2.53;1.70;;;30.50;99.40;;;;;;4968644;28;20030;-83
2023/08/31 11:49:42;;;;;;;2.70;1.83;;;30.50;99.90;;;;;;4950359;28;20279;-86
2023/08/31 11:52:11;;;;;;;2.47;1.85;;;30.50;99.90;;;;;;4951610;28;20041;-85
2023/08/31 11:54:39;;;;;;;2.20;1.60;;;30.60;99.90;;;;;;4963912;28;20050;-86
2023/08/31 11:57:08;;;;;;;2.83;1.70;;;30.70;99.90;;;;;;4969459;28;20042;-86
2023/08/31 11:59:36;;;;;;;3.00;1.73;;;30.70;98.90;;;;;;4969430;28;20031;-85
2023/08/31 12:02:05;;;;;;;2.35;1.70;;;30.50;98.70;;;;;;4948978;28;20039;-85
2023/08/31 12:04:31;;;;;;;2.45;1.60;;;30.30;98.10;;;;;;4950070;28;20027;-83
2023/08/31 12:07:04;;;;;;;1.90;1.40;;;30.00;98.10;;;;;;4945582;28;20034;-87
2023/08/31 12:09:30;;;;;;;1.90;1.45;;;29.70;95.50;;;;;;4960525;28;20027;-84
2023/08/31 12:11:56;;;;;;;2.10;1.40;;;29.50;98.00;;;;;;4966879;28;20385;-86
2023/08/31 12:14:23;;;;;;;2.50;1.60;;;29.30;98.20;;;;;;4966829;28;20117;-83
2023/08/31 12:16:51;;;;;;;3.25;1.60;;;29.00;97.10;;;;;;4970707;28;20577;-86
2023/08/31 12:19:17;;;;;;;2.63;1.80;;;28.70;97.70;;;;;;4948738;28;20050;-88
2023/08/31 12:21:45;;;;;;;4.22;1.95;;;28.50;97.80;;;;;;4941772;28;20058;-85
2023/08/31 12:24:11;;;;;;;4.40;1.90;;;28.30;98.40;;;;;;4950935;28;20097;-84
2023/08/31 12:26:37;;;;;;;3.10;1.65;;;28.10;99.10;;;;;;4948386;28;20488;-86
2023/08/31 12:29:04;;;;;;;2.90;1.40;;;28.10;99.90;;;;;;4948251;28;20035;-86
2023/08/31 12:31:32;;;;;;;2.30;1.50;;;28.10;99.90;;;;;;4949106;28;20376;-84
2023/08/31 12:33:58;;;;;;;2.17;1.40;;;28.30;99.90;;;;;;4946722;28;20033;-86
2023/08/31 12:36:24;;;;;;;2.58;1.40;;;28.40;99.90;;;;;;4965260;28;20059;-83
2023/08/31 12:38:50;;;;;;;3.03;1.40;;;28.60;99.90;;;;;;4914269;28;20438;-84
2023/08/31 12:41:17;;;;;;;3.25;1.40;;;28.70;99.90;;;;;;4932428;28;20050;-82
2023/08/31 12:43:42;;;;;;;3.92;1.67;;;28.70;99.10;;;;;;4963856;28;20127;-87
2023/08/31 12:46:09;;;;;;;2.33;1.47;;;28.60;99.20;;;;;;4950677;28;20023;-85
2023/08/31 12:48:35;;;;;;;2.50;1.20;;;28.40;98.80;;;;;;4964769;28;20365;-86